createdAt,value
2019-02-28T00:00:01.645Z,24.00
2019-02-28T00:01:01.613Z,24.00
2019-02-28T00:02:01.604Z,24.00
2019-02-28T00:03:01.602Z,24.00
2019-02-28T00:04:01.581Z,24.00
2019-02-28T00:05:05.897Z,24.00
2019-02-28T00:06:02.558Z,20.00
2019-02-28T00:07:01.547Z,24.00
2019-02-28T00:08:01.568Z,20.00
2019-02-28T00:09:01.528Z,20.00
2019-02-28T00:10:01.517Z,24.00
2019-02-28T00:11:02.157Z,24.00
2019-02-28T00:12:01.491Z,20.00
2019-02-28T00:13:01.477Z,20.00
2019-02-28T00:14:01.663Z,20.00
2019-02-28T00:15:01.459Z,20.00
2019-02-28T00:16:14.511Z,20.00
2019-02-28T00:17:01.433Z,20.00
2019-02-28T00:18:03.551Z,20.00
2019-02-28T00:19:01.415Z,20.00
2019-02-28T00:20:01.429Z,20.00
2019-02-28T00:21:06.043Z,20.00
2019-02-28T00:22:02.394Z,20.00
2019-02-28T00:23:01.374Z,20.00
2019-02-28T00:24:01.370Z,20.00
2019-02-28T00:25:04.237Z,20.00
2019-02-28T00:26:01.416Z,20.00
2019-02-28T00:27:01.334Z,20.00
2019-02-28T00:28:01.315Z,20.00
2019-02-28T00:29:01.303Z,20.00
2019-02-28T00:30:01.305Z,20.00
2019-02-28T00:31:01.298Z,20.00
2019-02-28T00:32:01.289Z,20.00
2019-02-28T00:33:01.289Z,20.00
2019-02-28T00:34:04.560Z,20.00
2019-02-28T00:35:01.245Z,20.00
2019-02-28T00:36:01.244Z,20.00
2019-02-28T00:37:01.240Z,20.00
2019-02-28T00:38:01.224Z,20.00
2019-02-28T00:39:01.207Z,20.00
2019-02-28T00:40:01.229Z,20.00
2019-02-28T00:41:01.179Z,20.00
2019-02-28T00:42:01.171Z,20.00
2019-02-28T00:43:01.188Z,20.00
2019-02-28T00:44:01.145Z,20.00
2019-02-28T00:45:02.289Z,20.00
2019-02-28T00:46:01.208Z,20.00
2019-02-28T00:47:11.505Z,20.00
2019-02-28T00:48:01.097Z,20.00
2019-02-28T00:49:01.124Z,20.00
2019-02-28T00:50:01.091Z,20.00
2019-02-28T00:51:01.063Z,20.00
2019-02-28T00:52:02.192Z,20.00
2019-02-28T00:53:01.044Z,20.00
2019-02-28T00:54:01.029Z,20.00
2019-02-28T00:55:01.060Z,20.00
2019-02-28T00:56:01.012Z,20.00
2019-02-28T00:57:00.997Z,20.00
2019-02-28T00:58:00.983Z,20.00
2019-02-28T00:59:01.189Z,20.00
2019-02-28T01:00:05.088Z,20.00
2019-02-28T01:01:01.975Z,20.00
2019-02-28T01:02:00.944Z,20.00
2019-02-28T01:03:00.942Z,20.00
2019-02-28T01:04:00.931Z,20.00
2019-02-28T01:05:01.303Z,20.00
2019-02-28T01:06:00.905Z,20.00
2019-02-28T01:07:00.943Z,20.00
2019-02-28T01:08:00.887Z,20.00
2019-02-28T01:09:00.861Z,20.00
2019-02-28T01:10:01.455Z,20.00
2019-02-28T01:11:00.839Z,20.00
2019-02-28T01:12:00.832Z,20.00
2019-02-28T01:13:00.860Z,20.00
2019-02-28T01:14:01.625Z,20.00
2019-02-28T01:15:00.801Z,20.00
2019-02-28T01:16:00.784Z,20.00
2019-02-28T01:17:00.783Z,20.00
2019-02-28T01:18:13.830Z,20.00
2019-02-28T01:19:00.749Z,20.00
2019-02-28T01:20:00.743Z,20.00
2019-02-28T01:21:00.739Z,20.00
2019-02-28T01:22:00.716Z,20.00
2019-02-28T01:23:00.714Z,20.00
2019-02-28T01:24:01.726Z,24.00
2019-02-28T01:25:00.684Z,20.00
2019-02-28T01:26:00.715Z,20.00
2019-02-28T01:27:00.664Z,24.00
2019-02-28T01:28:00.656Z,20.00
2019-02-28T01:29:01.894Z,20.00
2019-02-28T01:30:00.853Z,24.00
2019-02-28T01:31:00.618Z,20.00
2019-02-28T01:32:00.610Z,20.00
2019-02-28T01:33:00.598Z,20.00
2019-02-28T01:34:00.596Z,24.00
2019-02-28T01:35:05.870Z,20.00
2019-02-28T01:36:01.618Z,20.00
2019-02-28T01:37:00.583Z,24.00
2019-02-28T01:38:00.540Z,20.00
2019-02-28T01:39:00.537Z,24.00
2019-02-28T01:40:01.124Z,24.00
2019-02-28T01:41:00.508Z,20.00
2019-02-28T01:42:00.513Z,24.00
2019-02-28T01:43:00.487Z,24.00
2019-02-28T01:44:01.731Z,24.00
2019-02-28T01:45:00.545Z,20.00
2019-02-28T01:46:00.462Z,20.00
2019-02-28T01:47:00.455Z,20.00
2019-02-28T01:48:00.468Z,20.00
2019-02-28T01:49:13.713Z,20.00
2019-02-28T01:50:00.410Z,24.00
2019-02-28T01:51:01.585Z,20.00
2019-02-28T01:52:00.381Z,20.00
2019-02-28T01:53:00.379Z,20.00
2019-02-28T01:54:00.405Z,20.00
2019-02-28T01:55:00.351Z,20.00
2019-02-28T01:56:02.548Z,20.00
2019-02-28T01:57:00.329Z,20.00
2019-02-28T01:58:00.321Z,20.00
2019-02-28T01:59:00.312Z,20.00
2019-02-28T02:00:00.417Z,20.00
2019-02-28T02:01:00.297Z,20.00
2019-02-28T02:02:05.721Z,20.00
2019-02-28T02:03:01.293Z,20.00
2019-02-28T02:04:00.256Z,24.00
2019-02-28T02:05:00.241Z,24.00
2019-02-28T02:06:00.271Z,24.00
2019-02-28T02:07:00.482Z,24.00
2019-02-28T02:08:00.207Z,24.00
2019-02-28T02:09:00.206Z,24.00
2019-02-28T02:10:00.230Z,24.00
2019-02-28T02:11:00.192Z,20.00
2019-02-28T02:12:00.354Z,20.00
2019-02-28T02:13:03.157Z,20.00
2019-02-28T02:14:00.147Z,20.00
2019-02-28T02:15:00.289Z,20.00
2019-02-28T02:16:00.128Z,20.00
2019-02-28T02:17:01.082Z,20.00
2019-02-28T02:18:00.130Z,24.00
2019-02-28T02:19:00.093Z,20.00
2019-02-28T02:20:12.628Z,20.00
2019-02-28T02:21:00.839Z,20.00
2019-02-28T02:22:00.058Z,20.00
2019-02-28T02:23:00.086Z,20.00
2019-02-28T02:24:00.034Z,20.00
2019-02-28T02:25:03.050Z,20.00
2019-02-28T02:26:00.010Z,20.00
2019-02-28T02:27:00.006Z,20.00
2019-02-28T02:27:59.989Z,20.00
2019-02-28T02:29:01.202Z,20.00
2019-02-28T02:29:59.981Z,20.00
2019-02-28T02:30:59.979Z,20.00
2019-02-28T02:32:01.148Z,20.00
2019-02-28T02:32:59.979Z,20.00
2019-02-28T02:33:59.925Z,20.00
2019-02-28T02:35:06.099Z,20.00
2019-02-28T02:36:00.907Z,20.00
2019-02-28T02:36:59.907Z,20.00
2019-02-28T02:38:03.481Z,20.00
2019-02-28T02:38:59.886Z,20.00
2019-02-28T02:39:59.947Z,20.00
2019-02-28T02:41:01.013Z,20.00
2019-02-28T02:41:59.843Z,20.00
2019-02-28T02:42:59.836Z,20.00
2019-02-28T02:43:59.835Z,24.00
2019-02-28T02:45:04.909Z,20.00
2019-02-28T02:46:00.849Z,20.00
2019-02-28T02:46:59.783Z,20.00
2019-02-28T02:47:59.781Z,24.00
2019-02-28T02:48:59.769Z,20.00
2019-02-28T02:49:59.785Z,20.00
2019-02-28T02:51:11.013Z,20.00
2019-02-28T02:51:59.736Z,24.00
2019-02-28T02:53:04.953Z,20.00
2019-02-28T02:54:00.708Z,20.00
2019-02-28T02:54:59.708Z,20.00
2019-02-28T02:56:03.568Z,20.00
2019-02-28T02:57:00.867Z,20.00
2019-02-28T02:57:59.671Z,20.00
2019-02-28T02:59:01.126Z,20.00
2019-02-28T02:59:59.646Z,20.00
2019-02-28T03:00:59.633Z,20.00
2019-02-28T03:01:59.623Z,20.00
2019-02-28T03:02:59.646Z,20.00
2019-02-28T03:03:59.599Z,20.00
2019-02-28T03:04:59.597Z,20.00
2019-02-28T03:05:59.588Z,20.00
2019-02-28T03:06:59.573Z,20.00
2019-02-28T03:08:00.979Z,20.00
2019-02-28T03:08:59.569Z,20.00
2019-02-28T03:09:59.535Z,24.00
2019-02-28T03:10:59.524Z,24.00
2019-02-28T03:11:59.519Z,20.00
2019-02-28T03:12:59.502Z,20.00
2019-02-28T03:13:59.492Z,20.00
2019-02-28T03:14:59.517Z,20.00
2019-02-28T03:16:00.477Z,20.00
2019-02-28T03:16:59.471Z,20.00
2019-02-28T03:17:59.460Z,20.00
2019-02-28T03:18:59.435Z,20.00
2019-02-28T03:19:59.424Z,20.00
2019-02-28T03:20:59.453Z,20.00
2019-02-28T03:22:12.499Z,20.00
2019-02-28T03:23:02.004Z,20.00
2019-02-28T03:23:59.390Z,20.00
2019-02-28T03:24:59.371Z,20.00
2019-02-28T03:26:05.757Z,20.00
2019-02-28T03:27:00.397Z,20.00
2019-02-28T03:27:59.351Z,20.00
2019-02-28T03:28:59.335Z,20.00
2019-02-28T03:29:59.322Z,20.00
2019-02-28T03:30:59.329Z,20.00
2019-02-28T03:31:59.887Z,20.00
2019-02-28T03:32:59.509Z,20.00
2019-02-28T03:34:10.512Z,20.00
2019-02-28T03:35:00.618Z,20.00
2019-02-28T03:35:59.253Z,20.00
2019-02-28T03:36:59.272Z,20.00
2019-02-28T03:37:59.235Z,20.00
2019-02-28T03:38:59.274Z,20.00
2019-02-28T03:40:04.209Z,20.00
2019-02-28T03:41:00.194Z,20.00
2019-02-28T03:41:59.203Z,20.00
2019-02-28T03:43:05.319Z,20.00
2019-02-28T03:44:00.215Z,20.00
2019-02-28T03:44:59.161Z,20.00
2019-02-28T03:45:59.148Z,20.00
2019-02-28T03:46:59.135Z,20.00
2019-02-28T03:47:59.825Z,20.00
2019-02-28T03:48:59.125Z,20.00
2019-02-28T03:49:59.146Z,20.00
2019-02-28T03:50:59.090Z,20.00
2019-02-28T03:52:05.590Z,20.00
2019-02-28T03:54:13.460Z,20.00
2019-02-28T03:55:13.491Z,20.00
2019-02-28T03:56:14.672Z,20.00
2019-02-28T03:57:13.427Z,20.00
2019-02-28T03:58:13.418Z,20.00
2019-02-28T03:59:18.285Z,20.00
2019-02-28T04:00:14.402Z,20.00
2019-02-28T04:01:13.382Z,20.00
2019-02-28T04:02:13.366Z,24.00
2019-02-28T04:03:13.372Z,20.00
2019-02-28T04:04:13.358Z,20.00
2019-02-28T04:05:13.521Z,20.00
2019-02-28T04:06:14.032Z,20.00
2019-02-28T04:07:16.142Z,24.00
2019-02-28T04:08:13.316Z,24.00
2019-02-28T04:09:13.305Z,20.00
2019-02-28T04:10:16.814Z,20.00
2019-02-28T04:11:14.329Z,24.00
2019-02-28T04:12:13.267Z,20.00
2019-02-28T04:13:13.255Z,20.00
2019-02-28T04:14:13.245Z,20.00
2019-02-28T04:15:13.255Z,20.00
2019-02-28T04:16:13.242Z,20.00
2019-02-28T04:17:13.225Z,20.00
2019-02-28T04:18:13.207Z,20.00
2019-02-28T04:19:13.183Z,20.00
2019-02-28T04:20:13.174Z,20.00
2019-02-28T04:21:13.163Z,20.00
2019-02-28T04:22:13.170Z,20.00
2019-02-28T04:23:13.326Z,20.00
2019-02-28T04:24:24.093Z,20.00
2019-02-28T04:25:13.124Z,24.00
2019-02-28T04:26:13.111Z,24.00
2019-02-28T04:27:13.104Z,24.00
2019-02-28T04:28:16.811Z,24.00
2019-02-28T04:29:14.116Z,20.00
2019-02-28T04:30:13.069Z,24.00
2019-02-28T04:31:18.885Z,24.00
2019-02-28T04:32:14.063Z,24.00
2019-02-28T04:33:13.051Z,24.00
2019-02-28T04:34:14.337Z,24.00
2019-02-28T04:35:13.055Z,28.00
2019-02-28T04:36:13.005Z,24.00
2019-02-28T04:37:12.993Z,28.00
2019-02-28T04:38:12.990Z,28.00
2019-02-28T04:39:12.977Z,32.00
2019-02-28T04:40:12.969Z,32.00
2019-02-28T04:41:12.968Z,32.00
2019-02-28T04:42:12.957Z,36.00
2019-02-28T04:43:12.938Z,32.00
2019-02-28T04:44:15.347Z,40.00
2019-02-28T04:45:13.906Z,40.00
2019-02-28T04:46:12.936Z,44.00
2019-02-28T04:47:12.889Z,48.00
2019-02-28T04:48:13.876Z,48.00
2019-02-28T04:49:12.872Z,60.00
2019-02-28T04:50:12.869Z,60.00
2019-02-28T04:51:12.841Z,68.00
2019-02-28T04:52:12.948Z,76.00
2019-02-28T04:53:12.823Z,80.00
2019-02-28T04:54:12.825Z,96.00
2019-02-28T04:55:26.296Z,100.00
2019-02-28T04:56:12.785Z,112.00
2019-02-28T04:57:12.778Z,120.00
2019-02-28T04:58:12.805Z,128.00
2019-02-28T04:59:12.754Z,132.00
2019-02-28T05:00:12.740Z,136.00
2019-02-28T05:01:13.516Z,144.00
2019-02-28T05:02:12.721Z,148.00
2019-02-28T05:03:12.713Z,160.00
2019-02-28T05:04:12.738Z,172.00
2019-02-28T05:05:13.712Z,188.00
2019-02-28T05:06:12.684Z,208.00
2019-02-28T05:07:12.687Z,224.00
2019-02-28T05:08:12.672Z,236.00
2019-02-28T05:09:14.510Z,252.00
2019-02-28T05:10:12.801Z,264.00
2019-02-28T05:11:12.643Z,260.00
2019-02-28T05:12:12.620Z,288.00
2019-02-28T05:13:14.343Z,316.00
2019-02-28T05:14:12.606Z,340.00
2019-02-28T05:15:12.584Z,356.00
2019-02-28T05:16:13.187Z,368.00
2019-02-28T05:17:12.575Z,376.00
2019-02-28T05:18:12.562Z,392.00
2019-02-28T05:19:12.555Z,424.00
2019-02-28T05:20:12.541Z,460.00
2019-02-28T05:21:12.519Z,508.00
2019-02-28T05:22:12.566Z,552.00
2019-02-28T05:23:12.490Z,596.00
2019-02-28T05:24:12.489Z,648.00
2019-02-28T05:25:17.815Z,696.00
2019-02-28T05:27:27.125Z,816.00
2019-02-28T05:28:27.921Z,860.00
2019-02-28T05:29:27.069Z,884.00
2019-02-28T05:30:27.055Z,912.00
2019-02-28T05:31:27.947Z,940.00
2019-02-28T05:32:27.037Z,976.00
2019-02-28T05:33:27.062Z,1012.00
2019-02-28T05:34:27.025Z,1036.00
2019-02-28T05:35:27.011Z,1040.00
2019-02-28T05:36:26.994Z,1032.00
2019-02-28T05:37:26.986Z,1028.00
2019-02-28T05:38:26.981Z,1020.00
2019-02-28T05:39:28.270Z,1008.00
2019-02-28T05:40:26.950Z,1020.00
2019-02-28T05:41:26.940Z,1036.00
2019-02-28T05:42:26.932Z,1056.00
2019-02-28T05:43:29.183Z,1080.00
2019-02-28T05:44:27.934Z,1096.00
2019-02-28T05:45:26.900Z,1128.00
2019-02-28T05:46:26.883Z,1164.00
2019-02-28T05:47:29.414Z,1200.00
2019-02-28T05:48:27.865Z,1244.00
2019-02-28T05:49:26.865Z,1300.00
2019-02-28T05:50:26.850Z,1360.00
2019-02-28T05:51:26.847Z,1436.00
2019-02-28T05:52:26.835Z,1516.00
2019-02-28T05:53:26.809Z,1596.00
2019-02-28T05:54:26.800Z,1684.00
2019-02-28T05:55:26.860Z,1756.00
2019-02-28T05:56:26.778Z,1824.00
2019-02-28T05:57:39.350Z,1884.00
2019-02-28T05:58:27.754Z,1960.00
2019-02-28T05:59:27.539Z,2044.00
2019-02-28T06:00:26.732Z,2116.00
2019-02-28T06:01:26.898Z,2160.00
2019-02-28T06:02:26.712Z,2208.00
2019-02-28T06:03:29.555Z,2304.00
2019-02-28T06:04:26.687Z,2404.00
2019-02-28T06:05:26.688Z,2456.00
2019-02-28T06:06:26.666Z,2500.00
2019-02-28T06:07:28.711Z,2524.00
2019-02-28T06:08:26.652Z,2532.00
2019-02-28T06:09:26.643Z,2564.00
2019-02-28T06:10:26.646Z,2576.00
2019-02-28T06:11:26.618Z,2592.00
2019-02-28T06:12:26.647Z,2664.00
2019-02-28T06:13:26.632Z,2760.00
2019-02-28T06:14:27.695Z,2940.00
2019-02-28T06:15:28.973Z,3188.00
2019-02-28T06:16:26.562Z,3512.00
2019-02-28T06:17:26.547Z,3572.00
2019-02-28T06:18:32.632Z,3744.00
2019-02-28T06:19:27.583Z,3856.00
2019-02-28T06:20:26.521Z,3852.00
2019-02-28T06:21:26.507Z,4044.00
2019-02-28T06:22:26.502Z,4140.00
2019-02-28T06:23:26.480Z,4236.00
2019-02-28T06:24:26.474Z,4016.00
2019-02-28T06:25:26.481Z,4008.00
2019-02-28T06:26:26.466Z,4144.00
2019-02-28T06:27:26.446Z,4236.00
2019-02-28T06:28:39.445Z,4252.00
2019-02-28T06:29:26.420Z,4380.00
2019-02-28T06:30:27.779Z,4404.00
2019-02-28T06:31:26.397Z,4312.00
2019-02-28T06:32:27.371Z,4152.00
2019-02-28T06:33:26.377Z,4404.00
2019-02-28T06:34:26.368Z,4444.00
2019-02-28T06:35:26.357Z,4420.00
2019-02-28T06:36:29.168Z,4268.00
2019-02-28T06:37:26.334Z,4412.00
2019-02-28T06:38:26.340Z,4216.00
2019-02-28T06:39:27.582Z,4440.00
2019-02-28T06:40:26.298Z,4488.00
2019-02-28T06:41:26.297Z,4380.00
2019-02-28T06:42:26.301Z,4644.00
2019-02-28T06:43:26.267Z,4768.00
2019-02-28T06:44:26.988Z,4980.00
2019-02-28T06:45:26.256Z,5488.00
2019-02-28T06:46:26.261Z,5316.00
2019-02-28T06:47:26.228Z,5372.00
2019-02-28T06:48:26.740Z,5696.00
2019-02-28T06:49:26.205Z,5792.00
2019-02-28T06:50:26.198Z,5628.00
2019-02-28T06:51:26.191Z,5624.00
2019-02-28T06:52:26.186Z,5504.00
2019-02-28T06:53:26.177Z,5588.00
2019-02-28T06:54:26.206Z,5628.00
2019-02-28T06:55:26.182Z,5556.00
2019-02-28T06:56:26.135Z,5312.00
2019-02-28T06:57:26.877Z,5336.00
2019-02-28T06:58:26.125Z,5464.00
2019-02-28T06:59:39.181Z,5576.00
2019-02-28T07:00:26.121Z,5660.00
2019-02-28T07:01:26.075Z,5716.00
2019-02-28T07:02:28.584Z,5556.00
2019-02-28T07:03:27.053Z,5620.00
2019-02-28T07:04:26.048Z,5564.00
2019-02-28T07:05:26.388Z,5712.00
2019-02-28T07:06:26.056Z,5876.00
2019-02-28T07:07:26.006Z,5984.00
2019-02-28T07:08:28.806Z,6124.00
2019-02-28T07:09:26.000Z,6468.00
2019-02-28T07:10:25.986Z,6584.00
2019-02-28T07:11:25.970Z,6892.00
2019-02-28T07:12:29.273Z,7488.00
2019-02-28T07:13:25.955Z,7408.00
2019-02-28T07:14:25.939Z,7632.00
2019-02-28T07:15:25.927Z,8252.00
2019-02-28T07:16:25.907Z,8112.00
2019-02-28T07:17:25.922Z,8512.00
2019-02-28T07:18:25.892Z,8900.00
2019-02-28T07:19:26.487Z,9368.00
2019-02-28T07:20:25.880Z,8576.00
2019-02-28T07:21:25.866Z,7900.00
2019-02-28T07:22:25.839Z,8708.00
2019-02-28T07:23:26.727Z,8948.00
2019-02-28T07:24:25.844Z,8920.00
2019-02-28T07:25:25.874Z,9488.00
2019-02-28T07:26:25.806Z,9236.00
2019-02-28T07:27:26.653Z,8632.00
2019-02-28T07:28:25.779Z,8548.00
2019-02-28T07:29:25.851Z,8640.00
2019-02-28T07:30:39.157Z,8664.00
2019-02-28T07:31:25.742Z,8236.00
2019-02-28T07:32:26.226Z,8244.00
2019-02-28T07:33:25.723Z,8444.00
2019-02-28T07:34:25.718Z,8248.00
2019-02-28T07:35:25.903Z,7588.00
2019-02-28T07:36:25.685Z,7180.00
2019-02-28T07:37:25.682Z,6900.00
2019-02-28T07:38:28.829Z,7008.00
2019-02-28T07:39:25.697Z,6876.00
2019-02-28T07:40:25.650Z,6736.00
2019-02-28T07:41:26.776Z,6916.00
2019-02-28T07:42:25.628Z,6908.00
2019-02-28T07:43:25.646Z,6540.00
2019-02-28T07:44:26.581Z,6684.00
2019-02-28T07:45:25.591Z,6884.00
2019-02-28T07:46:25.595Z,7200.00
2019-02-28T07:47:25.581Z,7204.00
2019-02-28T07:48:29.070Z,6904.00
2019-02-28T07:49:25.998Z,6796.00
2019-02-28T07:50:25.545Z,6904.00
2019-02-28T07:51:26.336Z,7604.00
2019-02-28T07:52:25.556Z,7908.00
2019-02-28T07:53:25.514Z,8380.00
2019-02-28T07:54:25.489Z,8676.00
2019-02-28T07:55:27.315Z,8656.00
2019-02-28T07:56:25.479Z,8836.00
2019-02-28T07:57:25.475Z,8928.00
2019-02-28T07:58:26.642Z,9252.00
2019-02-28T07:59:25.450Z,9952.00
2019-02-28T08:00:25.434Z,9932.00
2019-02-28T08:01:38.543Z,9852.00
2019-02-28T08:02:25.409Z,10120.00
2019-02-28T08:03:25.393Z,10860.00
2019-02-28T08:04:25.411Z,10408.00
2019-02-28T08:05:30.154Z,9912.00
2019-02-28T08:06:26.357Z,9444.00
2019-02-28T08:07:25.356Z,9144.00
2019-02-28T08:08:26.479Z,9000.00
2019-02-28T08:09:25.329Z,9372.00
2019-02-28T08:10:25.334Z,9940.00
2019-02-28T08:11:25.303Z,9240.00
2019-02-28T08:12:27.438Z,8244.00
2019-02-28T08:13:26.327Z,7524.00
2019-02-28T08:14:25.266Z,7332.00
2019-02-28T08:15:25.282Z,6984.00
2019-02-28T08:16:25.273Z,6368.00
2019-02-28T08:17:25.245Z,6064.00
2019-02-28T08:18:25.226Z,6172.00
2019-02-28T08:19:27.096Z,6152.00
2019-02-28T08:20:25.244Z,5720.00
2019-02-28T08:21:25.193Z,5324.00
2019-02-28T08:22:25.205Z,5040.00
2019-02-28T08:23:25.184Z,4976.00
2019-02-28T08:24:26.645Z,5120.00
2019-02-28T08:25:25.179Z,5216.00
2019-02-28T08:26:25.164Z,5216.00
2019-02-28T08:27:25.641Z,5312.00
2019-02-28T08:28:25.153Z,5500.00
2019-02-28T08:29:25.103Z,5328.00
2019-02-28T08:30:25.097Z,5508.00
2019-02-28T08:31:25.084Z,5768.00
2019-02-28T08:32:36.179Z,5880.00
2019-02-28T08:33:25.051Z,5924.00
2019-02-28T08:34:25.062Z,5752.00
2019-02-28T08:35:25.035Z,5888.00
2019-02-28T08:36:25.032Z,6044.00
2019-02-28T08:37:25.017Z,6348.00
2019-02-28T08:38:25.029Z,6772.00
2019-02-28T08:39:24.991Z,7292.00
2019-02-28T08:40:26.698Z,7852.00
2019-02-28T08:41:25.745Z,8640.00
2019-02-28T08:42:24.954Z,8840.00
2019-02-28T08:43:27.324Z,8808.00
2019-02-28T08:44:24.945Z,8844.00
2019-02-28T08:45:24.949Z,8792.00
2019-02-28T08:46:24.918Z,8624.00
2019-02-28T08:47:24.906Z,8724.00
2019-02-28T08:48:24.903Z,8768.00
2019-02-28T08:49:24.922Z,8344.00
2019-02-28T08:50:24.873Z,7880.00
2019-02-28T08:51:27.757Z,7696.00
2019-02-28T08:52:25.850Z,7368.00
2019-02-28T08:53:24.854Z,7156.00
2019-02-28T08:54:27.342Z,7004.00
2019-02-28T08:55:28.665Z,7144.00
2019-02-28T08:56:24.801Z,7360.00
2019-02-28T08:57:25.703Z,7648.00
2019-02-28T08:58:24.793Z,7472.00
2019-02-28T08:59:24.778Z,6964.00
2019-02-28T09:00:31.327Z,6340.00
2019-02-28T09:01:25.916Z,5932.00
2019-02-28T09:02:24.738Z,5816.00
2019-02-28T09:03:38.004Z,5608.00
2019-02-28T09:04:24.712Z,5320.00
2019-02-28T09:05:26.168Z,4952.00
2019-02-28T09:06:24.695Z,4624.00
2019-02-28T09:07:24.695Z,4492.00
2019-02-28T09:08:25.385Z,4596.00
2019-02-28T09:09:24.658Z,5272.00
2019-02-28T09:10:24.654Z,6324.00
2019-02-28T09:11:24.638Z,6928.00
2019-02-28T09:12:24.628Z,7128.00
2019-02-28T09:13:25.149Z,7484.00
2019-02-28T09:14:24.603Z,7904.00
2019-02-28T09:15:30.017Z,7872.00
2019-02-28T09:16:25.582Z,7692.00
2019-02-28T09:17:24.566Z,7396.00
2019-02-28T09:18:24.559Z,6936.00
2019-02-28T09:19:24.595Z,6792.00
2019-02-28T09:20:24.546Z,7224.00
2019-02-28T09:21:24.529Z,8068.00
2019-02-28T09:22:27.174Z,9036.00
2019-02-28T09:23:24.513Z,9424.00
2019-02-28T09:24:25.989Z,9836.00
2019-02-28T09:25:24.501Z,10084.00
2019-02-28T09:26:24.469Z,10688.00
2019-02-28T09:27:24.463Z,10336.00
2019-02-28T09:28:24.456Z,9916.00
2019-02-28T09:29:24.437Z,9196.00
2019-02-28T09:30:26.550Z,8516.00
2019-02-28T09:31:25.422Z,7744.00
2019-02-28T09:32:24.409Z,7628.00
2019-02-28T09:33:24.399Z,7804.00
2019-02-28T09:34:36.430Z,7716.00
2019-02-28T09:35:24.375Z,7512.00
2019-02-28T09:36:24.371Z,7052.00
2019-02-28T09:37:29.516Z,6676.00
2019-02-28T09:38:25.338Z,6268.00
2019-02-28T09:39:24.329Z,5544.00
2019-02-28T09:40:25.648Z,4828.00
2019-02-28T09:41:24.349Z,4328.00
2019-02-28T09:42:24.315Z,3916.00
2019-02-28T09:43:24.889Z,3696.00
2019-02-28T09:44:24.271Z,3440.00
2019-02-28T09:45:24.281Z,3140.00
2019-02-28T09:46:24.251Z,3096.00
2019-02-28T09:47:26.704Z,3112.00
2019-02-28T09:48:24.232Z,3236.00
2019-02-28T09:49:24.225Z,3520.00
2019-02-28T09:50:24.212Z,3780.00
2019-02-28T09:51:24.196Z,4096.00
2019-02-28T09:52:24.193Z,4324.00
2019-02-28T09:53:24.259Z,4344.00
2019-02-28T09:54:25.270Z,4612.00
2019-02-28T09:55:24.151Z,5024.00
2019-02-28T09:56:24.151Z,5448.00
2019-02-28T09:57:24.137Z,5816.00
2019-02-28T09:58:26.128Z,6144.00
2019-02-28T09:59:25.154Z,6380.00
2019-02-28T10:00:24.111Z,6772.00
2019-02-28T10:01:24.445Z,7104.00
2019-02-28T10:02:24.088Z,7272.00
2019-02-28T10:03:24.071Z,7400.00
2019-02-28T10:04:24.059Z,7504.00
2019-02-28T10:05:38.859Z,7356.00
2019-02-28T10:06:24.029Z,7176.00
2019-02-28T10:07:26.490Z,7336.00
2019-02-28T10:08:24.009Z,7448.00
2019-02-28T10:09:24.001Z,7368.00
2019-02-28T10:10:23.986Z,7408.00
2019-02-28T10:11:23.984Z,7228.00
2019-02-28T10:12:24.000Z,7260.00
2019-02-28T10:13:23.951Z,7496.00
2019-02-28T10:14:25.728Z,7876.00
2019-02-28T10:15:23.940Z,7988.00
2019-02-28T10:16:23.945Z,7800.00
2019-02-28T10:17:25.911Z,8196.00
2019-02-28T10:18:23.908Z,8428.00
2019-02-28T10:19:23.901Z,8288.00
2019-02-28T10:20:27.369Z,8180.00
2019-02-28T10:21:25.318Z,8112.00
2019-02-28T10:22:23.894Z,8220.00
2019-02-28T10:23:23.850Z,7860.00
2019-02-28T10:24:24.712Z,7604.00
2019-02-28T10:25:23.838Z,7640.00
2019-02-28T10:26:23.820Z,7240.00
2019-02-28T10:27:26.887Z,6856.00
2019-02-28T10:28:23.828Z,6808.00
2019-02-28T10:29:23.787Z,7532.00
2019-02-28T10:30:31.221Z,7528.00
2019-02-28T10:31:35.130Z,7560.00
2019-02-28T10:32:24.746Z,7632.00
2019-02-28T10:33:23.741Z,7512.00
2019-02-28T10:34:26.392Z,7108.00
2019-02-28T10:35:23.717Z,7072.00
2019-02-28T10:36:36.183Z,7000.00
2019-02-28T10:37:23.698Z,6580.00
2019-02-28T10:38:23.684Z,6792.00
2019-02-28T10:39:23.671Z,7228.00
2019-02-28T10:40:23.694Z,7432.00
2019-02-28T10:41:24.171Z,7440.00
2019-02-28T10:42:23.677Z,7624.00
2019-02-28T10:43:23.632Z,7820.00
2019-02-28T10:44:23.618Z,7908.00
2019-02-28T10:45:23.604Z,7844.00
2019-02-28T10:46:23.615Z,7840.00
2019-02-28T10:47:28.151Z,7628.00
2019-02-28T10:48:24.572Z,7816.00
2019-02-28T10:49:24.097Z,7796.00
2019-02-28T10:50:23.556Z,7312.00
2019-02-28T10:51:23.547Z,7032.00
2019-02-28T10:52:26.777Z,6764.00
2019-02-28T10:53:23.568Z,7004.00
2019-02-28T10:54:23.513Z,6856.00
2019-02-28T10:55:23.509Z,6764.00
2019-02-28T10:56:23.492Z,6820.00
2019-02-28T10:57:23.483Z,6952.00
2019-02-28T10:58:23.508Z,7388.00
2019-02-28T10:59:24.397Z,7500.00
2019-02-28T11:00:23.453Z,7692.00
2019-02-28T11:01:23.436Z,7912.00
2019-02-28T11:02:23.434Z,7972.00
2019-02-28T11:03:23.422Z,7516.00
2019-02-28T11:04:23.436Z,7340.00
2019-02-28T11:05:23.388Z,7388.00
2019-02-28T11:06:25.342Z,7440.00
2019-02-28T11:07:37.826Z,7036.00
2019-02-28T11:08:23.354Z,7028.00
2019-02-28T11:09:25.568Z,7440.00
2019-02-28T11:10:23.333Z,7264.00
2019-02-28T11:11:23.320Z,7152.00
2019-02-28T11:12:23.923Z,7016.00
2019-02-28T11:13:23.304Z,7056.00
2019-02-28T11:14:23.286Z,6888.00
2019-02-28T11:15:23.367Z,6268.00
2019-02-28T11:16:23.703Z,6040.00
2019-02-28T11:17:23.308Z,5884.00
2019-02-28T11:18:23.254Z,5916.00
2019-02-28T11:19:24.841Z,5600.00
2019-02-28T11:20:26.209Z,5408.00
2019-02-28T11:21:23.242Z,5536.00
2019-02-28T11:22:23.211Z,5536.00
2019-02-28T11:23:23.270Z,5372.00
2019-02-28T11:24:23.679Z,5208.00
2019-02-28T11:25:23.178Z,5000.00
2019-02-28T11:26:23.170Z,4580.00
2019-02-28T11:27:23.182Z,4428.00
2019-02-28T11:28:27.969Z,4240.00
2019-02-28T11:29:24.173Z,4028.00
2019-02-28T11:30:23.114Z,3936.00
2019-02-28T11:31:23.115Z,3920.00
2019-02-28T11:32:23.098Z,4204.00
2019-02-28T11:33:23.331Z,4472.00
2019-02-28T11:34:23.085Z,4628.00
2019-02-28T11:35:23.898Z,4668.00
2019-02-28T11:36:23.056Z,4600.00
2019-02-28T11:37:23.041Z,4540.00
2019-02-28T11:38:35.418Z,4396.00
2019-02-28T11:39:23.019Z,4192.00
2019-02-28T11:40:23.006Z,4212.00
2019-02-28T11:41:22.994Z,3944.00
2019-02-28T11:42:24.560Z,3836.00
2019-02-28T11:43:22.976Z,4288.00
2019-02-28T11:44:23.030Z,3908.00
2019-02-28T11:45:25.314Z,3580.00
2019-02-28T11:46:22.946Z,3728.00
2019-02-28T11:47:23.375Z,3536.00
2019-02-28T11:48:22.921Z,3524.00
2019-02-28T11:49:25.676Z,3632.00
2019-02-28T11:50:23.909Z,3632.00
2019-02-28T11:51:22.895Z,3920.00
2019-02-28T11:52:24.512Z,4600.00
2019-02-28T11:53:22.873Z,5028.00
2019-02-28T11:54:22.865Z,5756.00
2019-02-28T11:55:22.897Z,5940.00
2019-02-28T11:56:25.533Z,5864.00
2019-02-28T11:57:23.842Z,6324.00
2019-02-28T11:58:22.824Z,6340.00
2019-02-28T11:59:24.217Z,6328.00
2019-02-28T12:00:22.807Z,6392.00
2019-02-28T12:01:22.832Z,6520.00
2019-02-28T12:02:22.776Z,6284.00
2019-02-28T12:03:22.760Z,6328.00
2019-02-28T12:04:22.793Z,6236.00
2019-02-28T12:05:22.740Z,6168.00
2019-02-28T12:06:25.720Z,6152.00
2019-02-28T12:07:22.778Z,6240.00
2019-02-28T12:08:22.714Z,5872.00
2019-02-28T12:09:35.861Z,5384.00
2019-02-28T12:10:22.686Z,5028.00
2019-02-28T12:11:22.683Z,5200.00
2019-02-28T12:12:22.664Z,5032.00
2019-02-28T12:13:22.689Z,4836.00
2019-02-28T12:14:22.645Z,4696.00
2019-02-28T12:15:22.731Z,4728.00
2019-02-28T12:16:22.619Z,4768.00
2019-02-28T12:17:25.524Z,4504.00
2019-02-28T12:18:23.675Z,4420.00
2019-02-28T12:19:22.588Z,4488.00
2019-02-28T12:20:26.315Z,4472.00
2019-02-28T12:21:22.602Z,4452.00
2019-02-28T12:22:22.555Z,4056.00
2019-02-28T12:23:23.443Z,3660.00
2019-02-28T12:24:22.578Z,3516.00
2019-02-28T12:25:22.527Z,3676.00
2019-02-28T12:26:22.535Z,3828.00